createdAt,value
2019-04-14T00:00:44.748Z,98.60
2019-04-14T00:03:37.548Z,98.70
2019-04-14T00:06:09.108Z,98.70
2019-04-14T00:08:40.015Z,99.10
2019-04-14T00:11:10.768Z,99.20
2019-04-14T00:13:41.541Z,99.40
2019-04-14T00:16:12.202Z,99.40
2019-04-14T00:18:42.960Z,99.40
2019-04-14T00:21:13.674Z,99.30
2019-04-14T00:23:45.622Z,99.30
2019-04-14T00:26:31.834Z,99.40
2019-04-14T00:29:04.490Z,99.60
2019-04-14T00:31:37.004Z,99.40
2019-04-14T00:34:26.801Z,99.30
2019-04-14T00:37:25.936Z,99.30
2019-04-14T00:40:01.950Z,99.40
2019-04-14T00:42:38.725Z,99.70
2019-04-14T00:45:30.646Z,99.50
2019-04-14T00:48:05.607Z,99.90
2019-04-14T00:50:31.874Z,99.90
2019-04-14T00:53:03.449Z,99.90
2019-04-14T00:55:34.355Z,99.90
2019-04-14T00:58:05.991Z,99.90
2019-04-14T01:00:38.678Z,99.90
2019-04-14T01:03:13.373Z,99.90
2019-04-14T01:05:44.243Z,99.90
2019-04-14T01:08:16.237Z,99.90
2019-04-14T01:10:47.686Z,99.90
2019-04-14T01:13:18.497Z,99.90
2019-04-14T01:15:58.737Z,99.90
2019-04-14T01:18:21.722Z,99.90
2019-04-14T01:20:53.521Z,99.90
2019-04-14T01:23:24.464Z,99.90
2019-04-14T01:25:56.435Z,99.90
2019-04-14T01:28:27.220Z,99.90
2019-04-14T01:30:58.940Z,99.90
2019-04-14T01:33:29.818Z,99.90
2019-04-14T01:36:01.622Z,99.90
2019-04-14T01:38:34.261Z,99.90
2019-04-14T01:41:06.326Z,99.90
2019-04-14T01:43:38.462Z,99.90
2019-04-14T01:46:16.110Z,99.90
2019-04-14T01:48:41.880Z,99.80
2019-04-14T01:51:30.910Z,99.60
2019-04-14T01:54:29.947Z,99.40
2019-04-14T01:57:19.889Z,99.50
2019-04-14T01:59:50.617Z,99.40
2019-04-14T02:02:24.805Z,99.70
2019-04-14T02:04:55.562Z,99.70
2019-04-14T02:07:27.553Z,99.80
2019-04-14T02:09:59.407Z,99.70
2019-04-14T02:12:30.313Z,99.60
2019-04-14T02:15:00.977Z,99.90
2019-04-14T02:17:32.722Z,99.70
2019-04-14T02:20:05.647Z,99.80
2019-04-14T02:22:37.535Z,99.80
2019-04-14T02:25:08.258Z,99.90
2019-04-14T02:27:38.928Z,99.90
2019-04-14T02:30:15.205Z,99.90
2019-04-14T02:33:15.381Z,99.90
2019-04-14T02:35:50.212Z,99.90
2019-04-14T02:38:23.230Z,99.90
2019-04-14T02:43:26.998Z,99.90
2019-04-14T02:45:49.958Z,99.90
2019-04-14T02:48:36.138Z,99.90
2019-04-14T02:50:59.467Z,99.90
2019-04-14T02:53:32.561Z,99.90
2019-04-14T02:58:36.536Z,99.90
2019-04-14T03:01:09.913Z,99.90
2019-04-14T03:03:41.317Z,99.90
2019-04-14T03:11:21.172Z,99.90
2019-04-14T03:16:25.761Z,99.90
2019-04-14T03:18:57.830Z,99.90
2019-04-14T03:24:31.710Z,99.90
2019-04-14T03:27:06.333Z,99.90
2019-04-14T03:29:45.047Z,99.90
2019-04-14T03:32:39.069Z,99.90
2019-04-14T03:39:51.176Z,99.90
2019-04-14T03:42:30.883Z,99.90
2019-04-14T03:44:56.250Z,99.90
2019-04-14T03:47:24.899Z,99.90
2019-04-14T03:50:05.980Z,99.90
2019-04-14T03:52:37.687Z,99.90
2019-04-14T03:54:56.982Z,99.90
2019-04-14T03:57:14.911Z,99.90
2019-04-14T03:59:45.712Z,99.90
2019-04-14T04:02:16.372Z,99.90
2019-04-14T04:04:47.107Z,99.90
2019-04-14T04:07:17.697Z,99.90
2019-04-14T04:09:58.640Z,99.90
2019-04-14T04:12:29.613Z,99.90
2019-04-14T04:15:00.179Z,99.90
2019-04-14T04:17:40.926Z,99.90
2019-04-14T04:20:39.526Z,99.90
2019-04-14T04:23:31.453Z,99.90
2019-04-14T04:26:19.846Z,99.90
2019-04-14T04:28:58.359Z,99.90
2019-04-14T04:31:39.536Z,99.90
2019-04-14T04:34:21.268Z,99.90
2019-04-14T04:37:01.954Z,99.90
2019-04-14T04:39:36.958Z,99.90
2019-04-14T04:42:08.993Z,99.90
2019-04-14T04:44:39.986Z,99.90
2019-04-14T04:47:10.645Z,99.90
2019-04-14T04:49:42.490Z,99.90
2019-04-14T04:52:14.568Z,99.90
2019-04-14T04:54:45.871Z,99.90
2019-04-14T04:57:17.734Z,99.90
2019-04-14T04:59:49.625Z,99.90
2019-04-14T05:02:20.391Z,99.90
2019-04-14T05:04:51.071Z,99.90
2019-04-14T05:07:23.029Z,99.90
2019-04-14T05:10:13.190Z,99.90
2019-04-14T05:12:56.421Z,99.90
2019-04-14T05:15:36.429Z,99.90
2019-04-14T05:18:09.151Z,99.90
2019-04-14T05:20:40.039Z,99.90
2019-04-14T05:23:10.620Z,99.90
2019-04-14T05:25:41.277Z,99.70
2019-04-14T05:28:11.855Z,99.10
2019-04-14T05:30:43.548Z,98.30
2019-04-14T05:33:14.435Z,98.10
2019-04-14T05:35:45.170Z,97.80
2019-04-14T05:38:16.909Z,97.20
2019-04-14T05:40:47.672Z,96.80
2019-04-14T05:43:33.708Z,96.60
2019-04-14T05:45:50.843Z,96.40
2019-04-14T05:48:22.762Z,96.30
2019-04-14T05:50:53.968Z,96.10
2019-04-14T05:53:24.614Z,95.40
2019-04-14T05:55:59.166Z,94.00
2019-04-14T05:58:29.994Z,91.30
2019-04-14T06:01:00.631Z,84.70
2019-04-14T06:03:32.151Z,81.30
2019-04-14T06:06:03.192Z,79.10
2019-04-14T06:08:33.796Z,74.20
2019-04-14T06:11:04.524Z,75.20
2019-04-14T06:13:35.176Z,70.00
2019-04-14T06:16:05.870Z,65.70
2019-04-14T06:18:36.869Z,60.30
2019-04-14T06:21:07.472Z,58.30
2019-04-14T06:23:40.781Z,57.70
2019-04-14T06:26:11.507Z,57.20
2019-04-14T06:28:42.212Z,55.00
2019-04-14T06:31:36.281Z,53.20
2019-04-14T06:34:26.039Z,52.00
2019-04-14T06:37:14.387Z,47.00
2019-04-14T06:39:48.112Z,47.50
2019-04-14T06:42:18.773Z,45.10
2019-04-14T06:44:49.345Z,43.20
2019-04-14T06:47:19.932Z,42.80
2019-04-14T06:49:50.497Z,47.20
2019-04-14T06:52:21.196Z,47.70
2019-04-14T06:54:51.729Z,49.30
2019-04-14T06:57:22.496Z,47.80
2019-04-14T06:59:53.179Z,45.00
2019-04-14T07:02:23.832Z,44.30
2019-04-14T07:04:54.377Z,42.90
2019-04-14T07:07:24.942Z,42.80
2019-04-14T07:09:55.548Z,44.00
2019-04-14T07:12:26.161Z,47.40
2019-04-14T07:14:56.804Z,51.30
2019-04-14T07:17:27.502Z,49.30
2019-04-14T07:20:02.294Z,44.60
2019-04-14T07:22:30.479Z,40.70
2019-04-14T07:25:01.116Z,37.90
2019-04-14T07:27:31.735Z,37.80
2019-04-14T07:30:24.572Z,36.20
2019-04-14T07:33:17.316Z,35.40
2019-04-14T07:36:15.252Z,35.80
2019-04-14T07:39:10.743Z,33.30
2019-04-14T07:41:55.336Z,31.60
2019-04-14T07:44:45.008Z,31.60
2019-04-14T07:47:19.493Z,31.40
2019-04-14T07:49:58.198Z,32.20
2019-04-14T07:52:35.744Z,31.10
2019-04-14T07:55:11.740Z,30.80
2019-04-14T07:58:04.270Z,31.80
2019-04-14T08:00:45.116Z,32.90
2019-04-14T08:03:25.663Z,32.20
2019-04-14T08:05:56.977Z,33.50
2019-04-14T08:08:27.613Z,32.30
2019-04-14T08:10:58.483Z,31.90
2019-04-14T08:13:29.082Z,31.80
2019-04-14T08:15:59.644Z,34.30
2019-04-14T08:18:30.279Z,33.50
2019-04-14T08:21:01.017Z,32.00
2019-04-14T08:23:31.574Z,31.90
2019-04-14T08:26:02.281Z,31.90
2019-04-14T08:28:32.942Z,28.60
2019-04-14T08:31:03.583Z,27.80
2019-04-14T08:33:34.651Z,27.30
2019-04-14T08:36:05.365Z,25.80
2019-04-14T08:38:36.013Z,26.00
2019-04-14T08:41:09.283Z,26.80
2019-04-14T08:43:56.902Z,27.60
2019-04-14T08:46:46.131Z,26.70
2019-04-14T08:49:23.435Z,29.90
2019-04-14T08:52:24.149Z,34.50
2019-04-14T08:55:19.567Z,38.50
2019-04-14T08:57:56.968Z,41.30
2019-04-14T09:00:52.780Z,43.90
2019-04-14T09:03:41.505Z,45.70
2019-04-14T09:06:32.812Z,46.00
2019-04-14T09:09:27.803Z,45.30
2019-04-14T09:12:01.208Z,46.00
2019-04-14T09:14:31.935Z,48.30
2019-04-14T09:17:02.725Z,50.40
2019-04-14T09:19:34.943Z,53.00
2019-04-14T09:22:05.775Z,53.10
2019-04-14T09:24:36.505Z,54.60
2019-04-14T09:27:07.259Z,55.00
2019-04-14T09:29:37.954Z,55.60
2019-04-14T09:32:12.685Z,55.80
2019-04-14T09:34:43.500Z,56.00
2019-04-14T09:37:14.268Z,59.50
2019-04-14T09:39:44.893Z,59.70
2019-04-14T09:42:17.196Z,56.40
2019-04-14T09:44:52.440Z,54.40
2019-04-14T09:47:23.112Z,55.10
2019-04-14T09:49:53.873Z,56.80
2019-04-14T09:52:24.502Z,59.80
2019-04-14T09:54:58.744Z,61.70
2019-04-14T09:57:31.218Z,65.10
2019-04-14T10:00:01.822Z,66.30
2019-04-14T10:02:34.613Z,67.70
2019-04-14T10:05:05.628Z,69.10
2019-04-14T10:07:39.396Z,68.70
2019-04-14T10:10:10.573Z,69.60
2019-04-14T10:12:43.254Z,70.40
2019-04-14T10:15:14.847Z,71.30
2019-04-14T10:17:45.465Z,70.10
2019-04-14T10:20:18.238Z,68.90
2019-04-14T10:22:49.098Z,71.80
2019-04-14T10:25:19.807Z,72.10
2019-04-14T10:27:50.490Z,72.00
2019-04-14T10:30:21.838Z,73.30
2019-04-14T10:32:52.546Z,70.80
2019-04-14T10:35:28.584Z,70.00
2019-04-14T10:37:59.518Z,69.10
2019-04-14T10:40:30.270Z,67.90
2019-04-14T10:43:00.977Z,68.40
2019-04-14T10:45:33.951Z,69.00
2019-04-14T10:48:06.514Z,68.40
2019-04-14T10:50:38.756Z,68.80
2019-04-14T10:53:10.840Z,67.70
2019-04-14T10:59:32.831Z,69.70
2019-04-14T11:02:28.906Z,69.70
2019-04-14T11:05:25.021Z,72.10
2019-04-14T11:08:15.874Z,71.40
2019-04-14T11:10:54.142Z,71.50
2019-04-14T11:13:36.544Z,72.40
2019-04-14T11:16:26.078Z,74.30
2019-04-14T11:19:04.053Z,73.90
2019-04-14T11:21:42.625Z,74.40
2019-04-14T11:24:14.972Z,75.10
2019-04-14T11:26:52.602Z,75.50
2019-04-14T11:29:26.782Z,74.50
2019-04-14T11:32:16.660Z,75.10
2019-04-14T11:34:52.770Z,75.70
2019-04-14T11:37:41.232Z,76.10
2019-04-14T11:40:17.950Z,76.30
2019-04-14T11:42:59.382Z,76.90
2019-04-14T11:45:34.515Z,77.90
2019-04-14T11:48:11.154Z,77.90
2019-04-14T11:50:44.393Z,78.30
2019-04-14T11:53:18.857Z,77.30
2019-04-14T11:55:49.854Z,76.40
2019-04-14T11:58:20.593Z,78.80
2019-04-14T12:01:04.249Z,79.50
2019-04-14T12:04:04.558Z,79.80
2019-04-14T12:07:12.660Z,78.90
2019-04-14T12:09:50.660Z,80.60
2019-04-14T12:12:22.806Z,80.00
2019-04-14T12:14:58.088Z,81.00
2019-04-14T12:17:30.172Z,85.20
2019-04-14T12:20:01.184Z,86.80
2019-04-14T12:22:32.284Z,88.10
2019-04-14T12:25:06.343Z,87.30
2019-04-14T12:27:39.658Z,88.70
2019-04-14T12:30:13.598Z,90.10
2019-04-14T12:32:44.912Z,88.60
2019-04-14T12:35:17.894Z,89.80
2019-04-14T12:37:48.670Z,90.20
2019-04-14T12:40:19.692Z,91.50
2019-04-14T12:43:00.738Z,92.00
2019-04-14T12:46:08.863Z,91.70
2019-04-14T12:48:57.935Z,91.40
2019-04-14T12:51:33.866Z,93.00
2019-04-14T12:54:07.780Z,93.50
2019-04-14T12:56:38.476Z,93.40
2019-04-14T12:59:22.957Z,92.70
2019-04-14T13:02:11.152Z,93.60
2019-04-14T13:04:42.151Z,93.80
2019-04-14T13:07:12.891Z,93.40
2019-04-14T13:09:44.784Z,93.90
2019-04-14T13:12:15.887Z,93.90
2019-04-14T13:14:50.087Z,94.20
2019-04-14T13:17:24.248Z,92.70
2019-04-14T13:19:58.294Z,93.70
2019-04-14T13:22:34.126Z,94.80
2019-04-14T13:25:13.645Z,95.50
2019-04-14T13:30:28.417Z,95.70
2019-04-14T13:33:08.083Z,96.50
2019-04-14T13:35:57.335Z,95.70
2019-04-14T13:38:47.516Z,97.20
2019-04-14T13:41:18.392Z,97.10
2019-04-14T13:43:52.099Z,97.60
2019-04-14T13:46:22.827Z,98.10
2019-04-14T13:49:00.838Z,97.30
2019-04-14T13:51:31.664Z,97.10
2019-04-14T13:54:02.612Z,97.40
2019-04-14T13:56:33.232Z,97.10
2019-04-14T13:59:05.376Z,96.40
2019-04-14T14:01:43.896Z,98.10
2019-04-14T14:04:16.187Z,96.90
2019-04-14T14:06:58.901Z,97.80
2019-04-14T14:09:30.424Z,97.90
2019-04-14T14:12:25.218Z,98.30
2019-04-14T14:15:13.937Z,97.60
2019-04-14T14:18:54.641Z,97.60
2019-04-14T14:21:50.556Z,98.10
2019-04-14T14:24:56.950Z,97.00
2019-04-14T14:27:50.160Z,98.10
2019-04-14T14:30:21.654Z,98.60
2019-04-14T14:32:55.589Z,97.90
2019-04-14T14:35:26.603Z,97.90
2019-04-14T14:38:05.319Z,97.10
2019-04-14T14:40:32.773Z,97.40
2019-04-14T14:43:05.386Z,97.70
2019-04-14T14:45:48.701Z,98.30
2019-04-14T14:48:41.581Z,97.40
2019-04-14T14:51:34.172Z,97.40
2019-04-14T14:54:04.845Z,97.00
2019-04-14T14:56:35.653Z,97.20
2019-04-14T14:59:07.989Z,97.30
2019-04-14T15:01:39.090Z,97.50
2019-04-14T15:04:10.217Z,98.00
2019-04-14T15:06:44.410Z,98.60
2019-04-14T15:09:15.566Z,98.70
2019-04-14T15:11:50.927Z,98.50
2019-04-14T15:14:28.210Z,99.30
2019-04-14T15:17:02.283Z,99.80
2019-04-14T15:19:41.563Z,99.20
2019-04-14T15:22:20.643Z,99.50
2019-04-14T15:25:17.196Z,99.90
2019-04-14T15:27:50.110Z,99.80
2019-04-14T15:30:34.677Z,99.20
2019-04-14T15:36:44.432Z,98.90
2019-04-14T15:39:18.633Z,99.40
2019-04-14T15:41:58.516Z,99.40
2019-04-14T15:44:30.881Z,99.80
2019-04-14T15:51:28.780Z,99.90
2019-04-14T16:07:30.834Z,99.90
2019-04-14T16:09:09.588Z,99.90
2019-04-14T16:10:11.195Z,99.90
2019-04-14T16:13:16.929Z,99.90
2019-04-14T16:16:36.604Z,99.90
2019-04-14T16:20:02.995Z,99.90
2019-04-14T16:22:51.296Z,99.90
2019-04-14T16:25:29.240Z,99.90
2019-04-14T16:28:13.343Z,99.90
2019-04-14T16:31:03.354Z,99.90
2019-04-14T16:33:51.329Z,99.90
2019-04-14T16:36:22.909Z,99.90
2019-04-14T16:38:53.718Z,99.90
2019-04-14T16:41:26.524Z,99.90
2019-04-14T16:44:01.339Z,99.90
2019-04-14T16:46:32.268Z,99.90
2019-04-14T16:49:03.693Z,99.90
2019-04-14T16:51:42.655Z,99.90
2019-04-14T16:54:23.358Z,99.90
2019-04-14T16:57:36.455Z,99.90
2019-04-14T17:00:08.910Z,99.90
2019-04-14T17:02:42.511Z,99.90
2019-04-14T17:05:13.237Z,99.90
2019-04-14T17:07:48.327Z,99.90
2019-04-14T17:10:21.684Z,99.90
2019-04-14T17:12:52.732Z,99.90
2019-04-14T17:15:42.856Z,99.90
2019-04-14T17:18:21.607Z,99.90
2019-04-14T17:21:10.502Z,99.90
2019-04-14T17:23:48.948Z,99.90
2019-04-14T17:26:47.468Z,99.90
2019-04-14T17:29:39.461Z,99.90
2019-04-14T17:32:25.016Z,99.90
2019-04-14T17:35:27.217Z,99.90
2019-04-14T17:38:04.074Z,99.90
2019-04-14T17:40:58.146Z,99.90
2019-04-14T17:43:39.950Z,99.90
2019-04-14T17:46:23.998Z,99.90
2019-04-14T17:49:25.798Z,99.90
2019-04-14T17:52:14.313Z,99.90
2019-04-14T17:55:12.768Z,99.90
2019-04-14T17:57:54.594Z,99.90
2019-04-14T18:00:47.024Z,99.90
2019-04-14T18:03:39.147Z,99.90
2019-04-14T18:06:38.338Z,99.90
2019-04-14T18:09:18.308Z,99.90
2019-04-14T18:12:11.755Z,99.90
2019-04-14T18:14:59.305Z,99.90
2019-04-14T18:17:47.307Z,99.90
2019-04-14T18:20:40.582Z,99.90
2019-04-14T18:23:11.744Z,99.90
2019-04-14T18:25:44.223Z,99.90
2019-04-14T18:28:40.181Z,99.90
2019-04-14T18:31:40.199Z,99.90
2019-04-14T18:34:16.735Z,99.90
2019-04-14T18:36:52.726Z,99.90
2019-04-14T18:39:42.052Z,99.90
2019-04-14T18:42:19.954Z,99.90
2019-04-14T18:45:08.696Z,99.90
2019-04-14T18:48:08.577Z,99.90
2019-04-14T18:50:47.326Z,99.90
2019-04-14T18:53:23.530Z,99.90
2019-04-14T18:56:03.478Z,99.90
2019-04-14T18:58:46.491Z,99.90
2019-04-14T19:01:22.385Z,99.90
2019-04-14T19:03:55.126Z,99.90
2019-04-14T19:06:36.865Z,99.90
2019-04-14T19:09:08.330Z,99.90
2019-04-14T19:11:55.681Z,99.90
2019-04-14T19:14:35.230Z,99.90
2019-04-14T19:24:41.970Z,99.90
2019-04-14T19:27:17.466Z,99.90
2019-04-14T19:29:52.334Z,99.90
2019-04-14T19:32:25.481Z,99.90
2019-04-14T19:34:57.893Z,99.90
2019-04-14T19:37:29.753Z,99.90
2019-04-14T19:40:00.641Z,99.90
2019-04-14T19:42:31.335Z,99.90
2019-04-14T19:45:02.262Z,99.90
2019-04-14T19:47:34.590Z,99.90
2019-04-14T19:50:07.608Z,99.90
2019-04-14T19:52:39.483Z,99.90
2019-04-14T19:55:19.733Z,99.90
2019-04-14T19:57:45.142Z,99.90
2019-04-14T20:00:16.176Z,99.90
2019-04-14T20:02:46.852Z,99.90
2019-04-14T20:05:20.847Z,99.90
2019-04-14T20:07:54.457Z,99.90
2019-04-14T20:10:25.261Z,99.90
2019-04-14T20:12:56.354Z,99.90
2019-04-14T20:15:29.987Z,99.90
2019-04-14T20:18:07.730Z,99.90
2019-04-14T20:20:54.507Z,99.90
2019-04-14T20:23:46.787Z,99.90
2019-04-14T20:26:23.170Z,99.90
2019-04-14T20:29:01.274Z,99.90
2019-04-14T20:31:48.344Z,99.90
2019-04-14T20:34:24.515Z,99.90
2019-04-14T20:36:56.781Z,99.90
2019-04-14T20:39:42.367Z,99.90
2019-04-14T20:42:12.978Z,99.90
2019-04-14T20:44:49.398Z,99.90
2019-04-14T20:47:20.307Z,99.90
2019-04-14T20:49:51.220Z,99.90
2019-04-14T20:52:22.082Z,99.90
2019-04-14T20:54:56.008Z,99.90
2019-04-14T20:57:29.731Z,99.90
2019-04-14T21:00:00.432Z,99.90
2019-04-14T21:02:53.144Z,99.90
2019-04-14T21:05:42.769Z,99.90
2019-04-14T21:08:41.498Z,99.90
2019-04-14T21:11:26.588Z,99.90
2019-04-14T21:14:09.624Z,99.90
2019-04-14T21:16:55.873Z,99.90
2019-04-14T21:19:33.898Z,99.90
2019-04-14T21:22:22.408Z,99.90
2019-04-14T21:25:14.159Z,99.90
2019-04-14T21:27:56.159Z,99.90
2019-04-14T21:30:37.021Z,99.90
2019-04-14T21:33:12.813Z,99.90
2019-04-14T21:36:00.322Z,99.90
2019-04-14T21:38:46.560Z,99.90
2019-04-14T21:41:23.706Z,99.90
2019-04-14T21:43:54.382Z,99.90
2019-04-14T21:46:25.267Z,99.90
2019-04-14T21:48:55.915Z,99.90
2019-04-14T21:51:45.774Z,99.90
2019-04-14T21:54:17.336Z,99.90
2019-04-14T21:56:53.425Z,99.90
2019-04-14T21:59:28.233Z,99.90
2019-04-14T22:02:32.951Z,99.90
2019-04-14T22:05:22.097Z,99.90
2019-04-14T22:08:21.695Z,99.90
2019-04-14T22:10:55.584Z,99.90
2019-04-14T22:13:26.390Z,99.90
2019-04-14T22:15:57.019Z,99.90
2019-04-14T22:18:27.708Z,99.90
2019-04-14T22:20:58.306Z,99.90
2019-04-14T22:23:28.964Z,99.90
2019-04-14T22:25:59.845Z,99.90
2019-04-14T22:28:30.545Z,99.90
2019-04-14T22:31:01.289Z,99.90
2019-04-14T22:33:31.995Z,99.90
2019-04-14T22:36:02.692Z,99.90
2019-04-14T22:38:33.419Z,99.90
2019-04-14T22:41:05.217Z,99.90
2019-04-14T22:43:35.870Z,99.90
2019-04-14T22:46:10.916Z,99.90
2019-04-14T22:48:41.713Z,99.90
2019-04-14T22:51:12.317Z,99.90
2019-04-14T22:53:42.959Z,99.90
2019-04-14T22:56:13.716Z,99.90
2019-04-14T22:58:44.383Z,99.90
2019-04-14T23:01:22.383Z,99.90
2019-04-14T23:04:04.649Z,99.90
2019-04-14T23:06:54.483Z,99.90
2019-04-14T23:09:47.222Z,99.90
2019-04-14T23:12:31.648Z,99.90
2019-04-14T23:15:20.279Z,99.90
2019-04-14T23:18:08.336Z,99.90
2019-04-14T23:21:00.907Z,99.90
2019-04-14T23:23:49.580Z,99.90
2019-04-14T23:26:20.322Z,99.90
2019-04-14T23:28:51.498Z,99.90
2019-04-14T23:31:22.244Z,99.90
2019-04-14T23:33:53.102Z,99.90
2019-04-14T23:36:23.703Z,99.90
2019-04-14T23:38:55.417Z,99.90
2019-04-14T23:41:26.240Z,99.90
2019-04-14T23:43:56.936Z,99.90
2019-04-14T23:46:27.677Z,99.90
2019-04-14T23:48:58.236Z,99.90
2019-04-14T23:51:30.696Z,99.90
2019-04-14T23:54:01.264Z,99.90
2019-04-14T23:56:32.197Z,99.90
2019-04-14T23:59:02.813Z,99.90
